sensor_id;sensor_type;location;lat;lon;timestamp;pressure;altitude;pressure_sealevel;temperature;humidity
15670;BME280;18524;45.190;5.732;2023-12-20T00:03:07;99830.91;;;7.44;100.00
15670;BME280;18524;45.190;5.732;2023-12-20T00:07:58;99824.06;;;7.42;100.00
15670;BME280;18524;45.190;5.732;2023-12-20T00:12:48;99833.84;;;7.54;100.00
15670;BME280;18524;45.190;5.732;2023-12-20T00:17:38;99841.47;;;7.57;100.00
15670;BME280;18524;45.190;5.732;2023-12-20T00:22:29;99854.13;;;7.49;100.00
15670;BME280;18524;45.190;5.732;2023-12-20T00:27:19;99863.47;;;7.53;100.00
15670;BME280;18524;45.190;5.732;2023-12-20T00:32:09;99842.50;;;7.39;100.00
15670;BME280;18524;45.190;5.732;2023-12-20T00:37:00;99846.63;;;7.43;100.00
15670;BME280;18524;45.190;5.732;2023-12-20T00:41:50;99843.13;;;7.28;100.00
15670;BME280;18524;45.190;5.732;2023-12-20T00:46:40;99825.69;;;7.29;100.00
15670;BME280;18524;45.190;5.732;2023-12-20T00:51:30;99821.22;;;7.31;100.00
15670;BME280;18524;45.190;5.732;2023-12-20T00:56:21;99817.31;;;7.08;100.00
15670;BME280;18524;45.190;5.732;2023-12-20T01:01:11;99824.38;;;6.90;100.00
15670;BME280;18524;45.190;5.732;2023-12-20T01:06:02;99825.66;;;6.66;100.00
15670;BME280;18524;45.190;5.732;2023-12-20T01:10:52;99829.81;;;6.70;100.00
15670;BME280;18524;45.190;5.732;2023-12-20T01:15:42;99834.13;;;6.86;100.00
15670;BME280;18524;45.190;5.732;2023-12-20T01:20:33;99839.84;;;6.93;100.00
15670;BME280;18524;45.190;5.732;2023-12-20T01:25:23;99853.91;;;7.06;100.00
15670;BME280;18524;45.190;5.732;2023-12-20T01:30:14;99837.06;;;6.96;100.00
15670;BME280;18524;45.190;5.732;2023-12-20T01:35:05;99847.56;;;6.95;100.00
15670;BME280;18524;45.190;5.732;2023-12-20T01:39:55;99847.59;;;7.10;100.00
15670;BME280;18524;45.190;5.732;2023-12-20T01:44:45;99848.69;;;7.22;100.00
15670;BME280;18524;45.190;5.732;2023-12-20T01:49:36;99856.34;;;7.09;100.00
15670;BME280;18524;45.190;5.732;2023-12-20T01:54:27;99848.00;;;7.03;100.00
15670;BME280;18524;45.190;5.732;2023-12-20T01:59:19;99854.66;;;6.93;100.00
15670;BME280;18524;45.190;5.732;2023-12-20T02:04:10;99855.25;;;6.49;100.00
15670;BME280;18524;45.190;5.732;2023-12-20T02:09:01;99860.78;;;6.25;100.00
15670;BME280;18524;45.190;5.732;2023-12-20T02:13:52;99855.22;;;6.16;100.00
15670;BME280;18524;45.190;5.732;2023-12-20T02:18:43;99849.25;;;6.14;100.00
15670;BME280;18524;45.190;5.732;2023-12-20T02:23:34;99843.47;;;6.24;100.00
15670;BME280;18524;45.190;5.732;2023-12-20T02:28:24;99825.75;;;6.31;100.00
15670;BME280;18524;45.190;5.732;2023-12-20T02:33:15;99824.25;;;6.27;100.00
15670;BME280;18524;45.190;5.732;2023-12-20T02:38:05;99814.72;;;6.43;100.00
15670;BME280;18524;45.190;5.732;2023-12-20T02:42:56;99797.16;;;6.47;100.00
15670;BME280;18524;45.190;5.732;2023-12-20T02:47:46;99787.06;;;6.41;100.00
15670;BME280;18524;45.190;5.732;2023-12-20T02:52:36;99779.34;;;6.39;100.00
15670;BME280;18524;45.190;5.732;2023-12-20T02:57:27;99789.50;;;6.44;100.00
15670;BME280;18524;45.190;5.732;2023-12-20T03:02:17;99783.97;;;6.66;100.00
15670;BME280;18524;45.190;5.732;2023-12-20T03:07:07;99776.16;;;6.66;100.00
15670;BME280;18524;45.190;5.732;2023-12-20T03:11:58;99780.13;;;6.73;100.00
15670;BME280;18524;45.190;5.732;2023-12-20T03:16:51;99771.69;;;6.99;100.00
15670;BME280;18524;45.190;5.732;2023-12-20T03:21:42;99769.66;;;7.04;100.00
15670;BME280;18524;45.190;5.732;2023-12-20T03:26:32;99757.47;;;7.05;100.00
15670;BME280;18524;45.190;5.732;2023-12-20T03:31:22;99749.34;;;6.79;100.00
15670;BME280;18524;45.190;5.732;2023-12-20T03:36:13;99744.91;;;6.81;100.00
15670;BME280;18524;45.190;5.732;2023-12-20T03:41:04;99738.72;;;6.98;100.00
15670;BME280;18524;45.190;5.732;2023-12-20T03:45:54;99748.91;;;7.03;100.00
15670;BME280;18524;45.190;5.732;2023-12-20T03:50:45;99746.31;;;6.87;100.00
15670;BME280;18524;45.190;5.732;2023-12-20T03:55:35;99744.13;;;7.11;100.00
15670;BME280;18524;45.190;5.732;2023-12-20T04:00:25;99748.22;;;6.99;100.00
15670;BME280;18524;45.190;5.732;2023-12-20T04:05:16;99737.88;;;7.13;100.00
15670;BME280;18524;45.190;5.732;2023-12-20T04:10:06;99740.06;;;7.21;100.00
15670;BME280;18524;45.190;5.732;2023-12-20T04:14:57;99730.38;;;7.23;100.00
15670;BME280;18524;45.190;5.732;2023-12-20T04:19:47;99724.88;;;7.28;100.00
15670;BME280;18524;45.190;5.732;2023-12-20T04:24:38;99715.94;;;7.32;100.00
15670;BME280;18524;45.190;5.732;2023-12-20T04:29:28;99715.25;;;7.44;100.00
15670;BME280;18524;45.190;5.732;2023-12-20T04:34:19;99715.72;;;7.20;100.00
15670;BME280;18524;45.190;5.732;2023-12-20T04:39:10;99722.72;;;7.04;100.00
15670;BME280;18524;45.190;5.732;2023-12-20T04:44:01;99717.38;;;6.92;100.00
15670;BME280;18524;45.190;5.732;2023-12-20T04:48:52;99715.88;;;6.87;100.00
15670;BME280;18524;45.190;5.732;2023-12-20T04:53:42;99715.72;;;6.75;100.00
15670;BME280;18524;45.190;5.732;2023-12-20T04:58:33;99719.09;;;6.77;100.00
15670;BME280;18524;45.190;5.732;2023-12-20T05:03:23;99714.81;;;6.76;100.00
15670;BME280;18524;45.190;5.732;2023-12-20T05:08:13;99691.19;;;6.47;100.00
15670;BME280;18524;45.190;5.732;2023-12-20T05:13:04;99697.88;;;6.20;100.00
15670;BME280;18524;45.190;5.732;2023-12-20T05:17:54;99703.25;;;6.17;100.00
15670;BME280;18524;45.190;5.732;2023-12-20T05:22:44;99699.63;;;6.04;100.00
15670;BME280;18524;45.190;5.732;2023-12-20T05:27:35;99708.91;;;5.92;100.00
15670;BME280;18524;45.190;5.732;2023-12-20T05:32:25;99705.00;;;6.01;100.00
15670;BME280;18524;45.190;5.732;2023-12-20T05:37:16;99705.00;;;6.01;100.00
15670;BME280;18524;45.190;5.732;2023-12-20T05:42:06;99705.09;;;6.15;100.00
15670;BME280;18524;45.190;5.732;2023-12-20T05:46:56;99704.13;;;6.49;100.00
15670;BME280;18524;45.190;5.732;2023-12-20T05:51:47;99713.63;;;6.50;100.00
15670;BME280;18524;45.190;5.732;2023-12-20T05:56:37;99718.06;;;6.64;100.00
15670;BME280;18524;45.190;5.732;2023-12-20T06:01:28;99712.59;;;6.52;100.00
15670;BME280;18524;45.190;5.732;2023-12-20T06:06:18;99715.53;;;6.62;100.00
15670;BME280;18524;45.190;5.732;2023-12-20T06:11:08;99718.41;;;6.73;100.00
15670;BME280;18524;45.190;5.732;2023-12-20T06:15:59;99717.72;;;6.85;100.00
15670;BME280;18524;45.190;5.732;2023-12-20T06:20:49;99710.97;;;6.97;100.00
15670;BME280;18524;45.190;5.732;2023-12-20T06:25:39;99711.56;;;7.02;100.00
15670;BME280;18524;45.190;5.732;2023-12-20T06:30:30;99707.25;;;7.17;100.00
15670;BME280;18524;45.190;5.732;2023-12-20T06:35:22;99695.69;;;6.91;100.00
15670;BME280;18524;45.190;5.732;2023-12-20T06:40:13;99707.31;;;6.85;100.00
15670;BME280;18524;45.190;5.732;2023-12-20T06:45:03;99706.28;;;6.88;100.00
15670;BME280;18524;45.190;5.732;2023-12-20T06:49:54;99699.25;;;6.58;100.00
15670;BME280;18524;45.190;5.732;2023-12-20T06:54:45;99709.34;;;6.49;100.00
15670;BME280;18524;45.190;5.732;2023-12-20T06:59:41;99707.56;;;6.49;100.00
15670;BME280;18524;45.190;5.732;2023-12-20T07:04:32;99709.84;;;6.40;100.00
15670;BME280;18524;45.190;5.732;2023-12-20T07:09:22;99720.25;;;6.40;100.00
15670;BME280;18524;45.190;5.732;2023-12-20T07:14:13;99719.56;;;6.68;100.00
15670;BME280;18524;45.190;5.732;2023-12-20T07:19:04;99727.84;;;6.76;100.00
15670;BME280;18524;45.190;5.732;2023-12-20T07:23:54;99721.53;;;6.80;100.00
15670;BME280;18524;45.190;5.732;2023-12-20T07:28:44;99730.94;;;6.82;100.00
15670;BME280;18524;45.190;5.732;2023-12-20T07:33:35;99725.06;;;6.79;100.00
15670;BME280;18524;45.190;5.732;2023-12-20T07:38:25;99730.50;;;6.90;100.00
15670;BME280;18524;45.190;5.732;2023-12-20T07:43:16;99722.22;;;7.13;100.00
15670;BME280;18524;45.190;5.732;2023-12-20T07:48:07;99733.94;;;7.06;100.00
15670;BME280;18524;45.190;5.732;2023-12-20T07:52:57;99739.16;;;6.90;100.00
15670;BME280;18524;45.190;5.732;2023-12-20T07:57:49;99740.44;;;6.83;100.00
15670;BME280;18524;45.190;5.732;2023-12-20T08:02:40;99735.38;;;6.96;100.00
15670;BME280;18524;45.190;5.732;2023-12-20T08:07:30;99753.94;;;7.06;100.00
15670;BME280;18524;45.190;5.732;2023-12-20T08:12:20;99741.91;;;7.03;100.00
15670;BME280;18524;45.190;5.732;2023-12-20T08:17:11;99745.63;;;6.99;100.00
15670;BME280;18524;45.190;5.732;2023-12-20T08:22:02;99757.56;;;7.03;100.00
15670;BME280;18524;45.190;5.732;2023-12-20T08:26:53;99757.47;;;7.05;100.00
15670;BME280;18524;45.190;5.732;2023-12-20T08:31:43;99765.31;;;6.89;100.00
15670;BME280;18524;45.190;5.732;2023-12-20T08:36:33;99777.59;;;6.87;100.00
15670;BME280;18524;45.190;5.732;2023-12-20T08:41:24;99784.16;;;6.94;100.00
15670;BME280;18524;45.190;5.732;2023-12-20T08:46:14;99791.25;;;7.08;100.00
15670;BME280;18524;45.190;5.732;2023-12-20T08:51:05;99791.31;;;7.06;100.00
15670;BME280;18524;45.190;5.732;2023-12-20T08:55:58;99802.06;;;7.00;100.00
15670;BME280;18524;45.190;5.732;2023-12-20T09:00:51;99803.69;;;6.87;100.00
15670;BME280;18524;45.190;5.732;2023-12-20T09:05:41;99793.94;;;6.75;100.00
15670;BME280;18524;45.190;5.732;2023-12-20T09:10:32;99786.78;;;6.78;100.00
15670;BME280;18524;45.190;5.732;2023-12-20T09:15:26;99793.94;;;6.75;100.00
15670;BME280;18524;45.190;5.732;2023-12-20T09:20:16;99796.34;;;6.94;100.00
15670;BME280;18524;45.190;5.732;2023-12-20T09:25:07;99791.06;;;6.95;100.00
15670;BME280;18524;45.190;5.732;2023-12-20T09:29:58;99808.03;;;6.86;100.00
15670;BME280;18524;45.190;5.732;2023-12-20T09:34:49;99805.34;;;7.04;100.00
15670;BME280;18524;45.190;5.732;2023-12-20T09:39:39;99805.88;;;7.10;100.00
15670;BME280;18524;45.190;5.732;2023-12-20T09:44:31;99811.25;;;7.07;100.00
15670;BME280;18524;45.190;5.732;2023-12-20T09:49:21;99812.50;;;7.16;100.00
15670;BME280;18524;45.190;5.732;2023-12-20T09:54:14;99814.41;;;7.44;100.00
15670;BME280;18524;45.190;5.732;2023-12-20T09:59:05;99815.03;;;7.63;100.00
15670;BME280;18524;45.190;5.732;2023-12-20T10:03:56;99797.38;;;7.82;100.00
15670;BME280;18524;45.190;5.732;2023-12-20T10:08:46;99806.19;;;7.80;100.00
15670;BME280;18524;45.190;5.732;2023-12-20T10:13:40;99794.41;;;8.03;100.00
15670;BME280;18524;45.190;5.732;2023-12-20T10:18:32;99792.03;;;8.28;100.00
15670;BME280;18524;45.190;5.732;2023-12-20T10:23:22;99774.78;;;8.40;100.00
15670;BME280;18524;45.190;5.732;2023-12-20T10:28:14;99772.38;;;8.92;100.00
15670;BME280;18524;45.190;5.732;2023-12-20T10:33:07;99769.81;;;9.32;100.00
15670;BME280;18524;45.190;5.732;2023-12-20T10:38:05;99761.50;;;8.98;100.00
15670;BME280;18524;45.190;5.732;2023-12-20T10:42:55;99752.78;;;9.12;100.00
15670;BME280;18524;45.190;5.732;2023-12-20T10:47:46;99747.91;;;9.73;100.00
15670;BME280;18524;45.190;5.732;2023-12-20T10:52:37;99730.28;;;9.75;100.00
15670;BME280;18524;45.190;5.732;2023-12-20T10:57:28;99727.78;;;9.86;100.00
15670;BME280;18524;45.190;5.732;2023-12-20T11:02:18;99725.56;;;9.92;100.00
15670;BME280;18524;45.190;5.732;2023-12-20T11:07:35;99730.25;;;9.49;100.00
15670;BME280;18524;45.190;5.732;2023-12-20T11:13:08;99723.22;;;8.97;100.00
15670;BME280;18524;45.190;5.732;2023-12-20T11:18:00;99723.00;;;9.00;100.00
15670;BME280;18524;45.190;5.732;2023-12-20T11:22:54;99705.63;;;8.99;100.00
15670;BME280;18524;45.190;5.732;2023-12-20T11:28:10;99713.50;;;8.99;100.00
15670;BME280;18524;45.190;5.732;2023-12-20T11:33:01;99714.47;;;8.84;100.00
15670;BME280;18524;45.190;5.732;2023-12-20T11:37:52;99709.53;;;9.06;100.00
15670;BME280;18524;45.190;5.732;2023-12-20T11:42:44;99704.91;;;8.97;100.00
15670;BME280;18524;45.190;5.732;2023-12-20T11:47:35;99695.66;;;8.92;100.00
15670;BME280;18524;45.190;5.732;2023-12-20T11:52:26;99707.84;;;9.05;100.00
15670;BME280;18524;45.190;5.732;2023-12-20T11:57:16;99693.75;;;9.21;100.00
15670;BME280;18524;45.190;5.732;2023-12-20T12:02:06;99710.13;;;9.37;100.00
15670;BME280;18524;45.190;5.732;2023-12-20T12:06:57;99700.31;;;9.40;100.00
15670;BME280;18524;45.190;5.732;2023-12-20T12:11:47;99688.16;;;9.52;100.00
15670;BME280;18524;45.190;5.732;2023-12-20T12:16:38;99694.22;;;9.53;100.00
15670;BME280;18524;45.190;5.732;2023-12-20T12:21:28;99691.59;;;9.65;100.00
15670;BME280;18524;45.190;5.732;2023-12-20T12:26:19;99678.75;;;9.75;100.00
15670;BME280;18524;45.190;5.732;2023-12-20T12:31:13;99677.81;;;9.76;100.00
15670;BME280;18524;45.190;5.732;2023-12-20T12:36:07;99677.69;;;9.65;100.00
15670;BME280;18524;45.190;5.732;2023-12-20T12:40:57;99673.09;;;9.81;100.00
15670;BME280;18524;45.190;5.732;2023-12-20T12:45:49;99678.13;;;9.84;100.00
15670;BME280;18524;45.190;5.732;2023-12-20T12:50:39;99678.53;;;9.91;100.00
15670;BME280;18524;45.190;5.732;2023-12-20T12:55:29;99676.53;;;9.94;100.00
15670;BME280;18524;45.190;5.732;2023-12-20T13:00:20;99672.53;;;10.01;100.00
15670;BME280;18524;45.190;5.732;2023-12-20T13:05:11;99670.97;;;9.99;100.00
15670;BME280;18524;45.190;5.732;2023-12-20T13:10:02;99664.16;;;10.09;100.00
15670;BME280;18524;45.190;5.732;2023-12-20T13:14:53;99673.47;;;10.13;100.00
15670;BME280;18524;45.190;5.732;2023-12-20T13:19:44;99661.94;;;10.28;100.00
15670;BME280;18524;45.190;5.732;2023-12-20T13:24:34;99670.00;;;10.62;100.00
15670;BME280;18524;45.190;5.732;2023-12-20T13:29:25;99679.94;;;10.93;100.00
15670;BME280;18524;45.190;5.732;2023-12-20T13:34:17;99675.47;;;11.07;100.00
15670;BME280;18524;45.190;5.732;2023-12-20T13:39:07;99678.63;;;11.23;95.40
15670;BME280;18524;45.190;5.732;2023-12-20T13:43:58;99686.66;;;11.33;90.93
15670;BME280;18524;45.190;5.732;2023-12-20T13:48:48;99686.31;;;11.37;90.09
15670;BME280;18524;45.190;5.732;2023-12-20T13:53:39;99703.84;;;11.37;93.78
15670;BME280;18524;45.190;5.732;2023-12-20T13:58:30;99712.22;;;11.42;97.72
15670;BME280;18524;45.190;5.732;2023-12-20T14:03:20;99722.44;;;11.22;100.00
15670;BME280;18524;45.190;5.732;2023-12-20T14:08:11;99718.97;;;11.22;100.00
15670;BME280;18524;45.190;5.732;2023-12-20T14:13:01;99711.78;;;10.89;100.00
15670;BME280;18524;45.190;5.732;2023-12-20T14:17:52;99715.19;;;10.78;100.00
15670;BME280;18524;45.190;5.732;2023-12-20T14:22:42;99719.63;;;10.65;100.00
15670;BME280;18524;45.190;5.732;2023-12-20T14:27:34;99728.56;;;10.62;99.79
15670;BME280;18524;45.190;5.732;2023-12-20T14:32:24;99738.66;;;10.56;100.00
15670;BME280;18524;45.190;5.732;2023-12-20T14:37:16;99738.13;;;10.38;99.40
15670;BME280;18524;45.190;5.732;2023-12-20T14:42:08;99744.03;;;10.29;100.00
15670;BME280;18524;45.190;5.732;2023-12-20T14:47:02;99740.91;;;10.24;95.25
15670;BME280;18524;45.190;5.732;2023-12-20T14:51:53;99751.28;;;10.25;99.11
15670;BME280;18524;45.190;5.732;2023-12-20T14:56:43;99762.47;;;10.15;95.03
15670;BME280;18524;45.190;5.732;2023-12-20T15:01:33;99774.44;;;10.19;92.94
15670;BME280;18524;45.190;5.732;2023-12-20T15:06:24;99760.38;;;10.20;94.73
15670;BME280;18524;45.190;5.732;2023-12-20T15:11:15;99770.78;;;10.09;89.58
15670;BME280;18524;45.190;5.732;2023-12-20T15:16:06;99761.94;;;9.97;89.70
15670;BME280;18524;45.190;5.732;2023-12-20T15:20:56;99758.91;;;9.78;93.20
15670;BME280;18524;45.190;5.732;2023-12-20T15:25:46;99760.78;;;9.76;84.09
15670;BME280;18524;45.190;5.732;2023-12-20T15:30:37;99801.97;;;9.74;84.79
15670;BME280;18524;45.190;5.732;2023-12-20T15:35:28;99777.56;;;9.73;79.74
15670;BME280;18524;45.190;5.732;2023-12-20T15:40:18;99787.03;;;9.61;83.58
15670;BME280;18524;45.190;5.732;2023-12-20T15:45:09;99797.50;;;9.61;85.82
15670;BME280;18524;45.190;5.732;2023-12-20T15:50:00;99784.94;;;9.54;82.44
15670;BME280;18524;45.190;5.732;2023-12-20T15:54:50;99770.66;;;9.45;85.42
15670;BME280;18524;45.190;5.732;2023-12-20T15:59:41;99784.19;;;9.52;82.13
15670;BME280;18524;45.190;5.732;2023-12-20T16:04:31;99786.50;;;9.56;81.37
15670;BME280;18524;45.190;5.732;2023-12-20T16:09:22;99781.78;;;9.49;81.22
15670;BME280;18524;45.190;5.732;2023-12-20T16:14:12;99790.34;;;9.38;84.82
15670;BME280;18524;45.190;5.732;2023-12-20T16:19:08;99802.81;;;9.34;82.06
15670;BME280;18524;45.190;5.732;2023-12-20T16:23:58;99818.00;;;9.42;82.63
15670;BME280;18524;45.190;5.732;2023-12-20T16:28:49;99809.09;;;9.45;83.91
15670;BME280;18524;45.190;5.732;2023-12-20T16:33:39;99802.81;;;9.47;81.55
15670;BME280;18524;45.190;5.732;2023-12-20T16:38:29;99803.22;;;9.41;84.33
15670;BME280;18524;45.190;5.732;2023-12-20T16:43:20;99809.84;;;9.47;82.79
15670;BME280;18524;45.190;5.732;2023-12-20T16:48:10;99822.50;;;9.40;83.32
15670;BME280;18524;45.190;5.732;2023-12-20T16:53:00;99816.19;;;9.30;84.13
15670;BME280;18524;45.190;5.732;2023-12-20T16:57:51;99824.66;;;9.06;84.69
15670;BME280;18524;45.190;5.732;2023-12-20T17:02:41;99821.63;;;9.13;86.84
15670;BME280;18524;45.190;5.732;2023-12-20T17:07:32;99815.38;;;9.15;87.01
15670;BME280;18524;45.190;5.732;2023-12-20T17:12:23;99809.09;;;9.18;88.18
15670;BME280;18524;45.190;5.732;2023-12-20T17:17:15;99818.94;;;9.14;84.37
15670;BME280;18524;45.190;5.732;2023-12-20T17:22:05;99815.63;;;9.25;85.12
15670;BME280;18524;45.190;5.732;2023-12-20T17:26:56;99820.75;;;9.26;83.96
15670;BME280;18524;45.190;5.732;2023-12-20T17:31:46;99812.06;;;9.26;83.02
15670;BME280;18524;45.190;5.732;2023-12-20T17:36:37;99831.13;;;9.28;81.46
15670;BME280;18524;45.190;5.732;2023-12-20T17:41:28;99828.25;;;9.18;82.88
15670;BME280;18524;45.190;5.732;2023-12-20T17:46:18;99833.94;;;9.25;81.89
15670;BME280;18524;45.190;5.732;2023-12-20T17:51:09;99848.66;;;9.13;82.62
15670;BME280;18524;45.190;5.732;2023-12-20T17:55:59;99861.97;;;9.23;82.14
15670;BME280;18524;45.190;5.732;2023-12-20T18:00:49;99878.72;;;9.20;80.48
15670;BME280;18524;45.190;5.732;2023-12-20T18:05:40;99882.22;;;9.06;85.05
15670;BME280;18524;45.190;5.732;2023-12-20T18:10:30;99885.72;;;9.20;84.24
15670;BME280;18524;45.190;5.732;2023-12-20T18:15:21;99869.00;;;9.22;81.14
15670;BME280;18524;45.190;5.732;2023-12-20T18:20:13;99888.06;;;9.24;85.60
15670;BME280;18524;45.190;5.732;2023-12-20T18:25:07;99899.56;;;9.22;81.50
15670;BME280;18524;45.190;5.732;2023-12-20T18:29:57;99900.03;;;9.14;81.52
15670;BME280;18524;45.190;5.732;2023-12-20T18:34:55;99892.75;;;9.19;82.55
15670;BME280;18524;45.190;5.732;2023-12-20T18:39:45;99891.91;;;9.33;80.05
15670;BME280;18524;45.190;5.732;2023-12-20T18:44:37;99899.28;;;9.26;81.62
15670;BME280;18524;45.190;5.732;2023-12-20T18:49:27;99903.22;;;9.19;82.16
15670;BME280;18524;45.190;5.732;2023-12-20T18:54:17;99898.81;;;9.20;79.84
15670;BME280;18524;45.190;5.732;2023-12-20T18:59:08;99906.50;;;9.08;81.36
15670;BME280;18524;45.190;5.732;2023-12-20T19:03:59;99889.88;;;9.09;82.32
15670;BME280;18524;45.190;5.732;2023-12-20T19:08:50;99907.63;;;8.90;81.66
15670;BME280;18524;45.190;5.732;2023-12-20T19:13:42;99917.09;;;8.93;83.16
15670;BME280;18524;45.190;5.732;2023-12-20T19:18:32;99918.88;;;8.92;81.37
15670;BME280;18524;45.190;5.732;2023-12-20T19:23:23;99921.38;;;8.94;81.54
15670;BME280;18524;45.190;5.732;2023-12-20T19:28:13;99905.94;;;8.89;81.12
15670;BME280;18524;45.190;5.732;2023-12-20T19:33:04;99913.63;;;8.78;82.55
15670;BME280;18524;45.190;5.732;2023-12-20T19:37:55;99911.00;;;8.78;82.20
15670;BME280;18524;45.190;5.732;2023-12-20T19:42:45;99920.72;;;8.62;83.20
15670;BME280;18524;45.190;5.732;2023-12-20T19:47:36;99922.13;;;8.67;82.74
15670;BME280;18524;45.190;5.732;2023-12-20T19:52:26;99926.13;;;8.59;82.94
15670;BME280;18524;45.190;5.732;2023-12-20T19:57:18;99934.53;;;8.64;83.44
15670;BME280;18524;45.190;5.732;2023-12-20T20:02:09;99936.78;;;8.70;82.70
15670;BME280;18524;45.190;5.732;2023-12-20T20:06:59;99939.41;;;8.70;82.25
15670;BME280;18524;45.190;5.732;2023-12-20T20:11:49;99945.94;;;8.77;82.28
15670;BME280;18524;45.190;5.732;2023-12-20T20:16:43;99940.31;;;8.83;81.34
15670;BME280;18524;45.190;5.732;2023-12-20T20:21:33;99939.94;;;8.75;82.50
15670;BME280;18524;45.190;5.732;2023-12-20T20:26:24;99941.06;;;8.85;80.39
15670;BME280;18524;45.190;5.732;2023-12-20T20:31:14;99951.91;;;8.79;80.06
15670;BME280;18524;45.190;5.732;2023-12-20T20:36:05;99940.88;;;8.88;79.26
15670;BME280;18524;45.190;5.732;2023-12-20T20:40:57;99943.78;;;8.84;79.34
15670;BME280;18524;45.190;5.732;2023-12-20T20:45:48;99940.69;;;8.63;79.27
15670;BME280;18524;45.190;5.732;2023-12-20T20:50:38;99946.38;;;8.55;80.31
15670;BME280;18524;45.190;5.732;2023-12-20T20:55:29;99944.84;;;8.51;80.05
15670;BME280;18524;45.190;5.732;2023-12-20T21:00:19;99952.53;;;8.54;80.20
15670;BME280;18524;45.190;5.732;2023-12-20T21:05:10;99956.16;;;8.52;80.00
15670;BME280;18524;45.190;5.732;2023-12-20T21:10:01;99935.94;;;8.55;82.16
15670;BME280;18524;45.190;5.732;2023-12-20T21:14:51;99951.66;;;8.39;82.00
15670;BME280;18524;45.190;5.732;2023-12-20T21:19:43;99959.78;;;8.49;79.68
15670;BME280;18524;45.190;5.732;2023-12-20T21:24:34;99943.09;;;8.52;82.12
15670;BME280;18524;45.190;5.732;2023-12-20T21:29:25;99940.00;;;8.45;81.38
15670;BME280;18524;45.190;5.732;2023-12-20T21:34:15;99930.09;;;8.36;82.93
15670;BME280;18524;45.190;5.732;2023-12-20T21:39:07;99924.97;;;8.49;81.20
15670;BME280;18524;45.190;5.732;2023-12-20T21:43:58;99901.25;;;8.37;82.19
15670;BME280;18524;45.190;5.732;2023-12-20T21:48:48;99899.91;;;8.30;80.73
15670;BME280;18524;45.190;5.732;2023-12-20T21:53:38;99909.53;;;8.30;79.12
15670;BME280;18524;45.190;5.732;2023-12-20T21:58:30;99908.16;;;8.38;78.91
15670;BME280;18524;45.190;5.732;2023-12-20T22:03:21;99903.72;;;8.25;79.33
15670;BME280;18524;45.190;5.732;2023-12-20T22:08:11;99899.53;;;8.22;78.85
15670;BME280;18524;45.190;5.732;2023-12-20T22:13:02;99890.19;;;8.18;79.59
15670;BME280;18524;45.190;5.732;2023-12-20T22:17:52;99887.13;;;8.26;79.35
15670;BME280;18524;45.190;5.732;2023-12-20T22:22:43;99896.53;;;8.28;80.21
15670;BME280;18524;45.190;5.732;2023-12-20T22:27:34;99883.94;;;8.21;82.73
15670;BME280;18524;45.190;5.732;2023-12-20T22:32:24;99880.63;;;8.17;81.20
15670;BME280;18524;45.190;5.732;2023-12-20T22:37:14;99895.56;;;8.15;83.91
15670;BME280;18524;45.190;5.732;2023-12-20T22:42:05;99891.34;;;8.12;82.85
15670;BME280;18524;45.190;5.732;2023-12-20T22:46:56;99907.13;;;8.11;83.66
15670;BME280;18524;45.190;5.732;2023-12-20T22:51:46;99907.69;;;8.16;84.14
15670;BME280;18524;45.190;5.732;2023-12-20T22:56:38;99921.66;;;8.31;85.30
15670;BME280;18524;45.190;5.732;2023-12-20T23:01:29;99921.97;;;8.40;85.68
15670;BME280;18524;45.190;5.732;2023-12-20T23:06:20;99920.66;;;8.33;85.46
15670;BME280;18524;45.190;5.732;2023-12-20T23:11:10;99916.78;;;8.25;88.13
15670;BME280;18524;45.190;5.732;2023-12-20T23:16:02;99916.44;;;8.31;86.39
15670;BME280;18524;45.190;5.732;2023-12-20T23:20:52;99919.06;;;8.15;89.33
15670;BME280;18524;45.190;5.732;2023-12-20T23:25:43;99915.94;;;8.24;91.59
15670;BME280;18524;45.190;5.732;2023-12-20T23:30:34;99912.88;;;8.32;90.47
15670;BME280;18524;45.190;5.732;2023-12-20T23:35:27;99909.97;;;8.22;83.81
15670;BME280;18524;45.190;5.732;2023-12-20T23:40:17;99911.56;;;8.25;84.52
15670;BME280;18524;45.190;5.732;2023-12-20T23:45:08;99891.31;;;8.28;80.76
15670;BME280;18524;45.190;5.732;2023-12-20T23:49:58;99891.78;;;8.21;83.87
15670;BME280;18524;45.190;5.732;2023-12-20T23:54:49;99905.22;;;8.29;87.35
15670;BME280;18524;45.190;5.732;2023-12-20T23:59:39;99904.72;;;8.38;90.59
